createdAt,value
2018-01-29T00:00:09.002Z,97274
2018-01-29T00:02:38.824Z,97280
2018-01-29T00:05:08.597Z,97282
2018-01-29T00:07:37.682Z,97279
2018-01-29T00:10:06.695Z,97291
2018-01-29T00:12:35.692Z,97301
2018-01-29T00:15:04.737Z,97292
2018-01-29T00:17:35.814Z,97286
2018-01-29T00:20:05.131Z,97279
2018-01-29T00:22:34.133Z,97273
2018-01-29T00:25:03.184Z,97271
2018-01-29T00:27:33.158Z,97277
2018-01-29T00:30:02.966Z,97278
2018-01-29T00:32:32.742Z,97269
2018-01-29T00:35:01.790Z,97271
2018-01-29T00:37:30.797Z,97268
2018-01-29T00:39:59.848Z,97265
2018-01-29T00:42:28.863Z,97261
2018-01-29T00:44:58.349Z,97263
2018-01-29T00:47:27.358Z,97264
2018-01-29T00:49:57.173Z,97273
2018-01-29T00:52:26.951Z,97268
2018-01-29T00:54:56.009Z,97263
2018-01-29T00:57:25.051Z,97278
2018-01-29T00:59:54.068Z,97279
2018-01-29T01:02:23.895Z,97274
2018-01-29T01:04:52.919Z,97265
2018-01-29T01:07:21.972Z,97262
2018-01-29T01:09:51.754Z,97249
2018-01-29T01:12:20.836Z,97254
2018-01-29T01:14:49.845Z,97263
2018-01-29T01:17:18.911Z,97267
2018-01-29T01:19:47.925Z,97272
2018-01-29T01:22:16.987Z,97298
2018-01-29T01:24:46.068Z,97270
2018-01-29T01:27:15.102Z,97267
2018-01-29T01:29:44.153Z,97261
2018-01-29T01:32:13.174Z,97268
2018-01-29T01:34:42.245Z,97262
2018-01-29T01:37:11.263Z,97263
2018-01-29T01:39:40.319Z,97261
2018-01-29T01:42:09.325Z,97260
2018-01-29T01:44:38.381Z,97247
2018-01-29T01:47:07.394Z,97103
2018-01-29T01:49:37.211Z,97247
2018-01-29T01:52:06.995Z,97263
2018-01-29T01:54:36.107Z,97257
2018-01-29T01:57:05.888Z,97246
2018-01-29T01:59:34.908Z,97249
2018-01-29T02:02:04.724Z,97181
2018-01-29T02:04:34.499Z,97248
2018-01-29T02:07:03.568Z,97252
2018-01-29T02:09:32.622Z,97261
2018-01-29T02:12:02.441Z,97244
2018-01-29T02:14:32.242Z,97247
2018-01-29T02:17:02.077Z,97243
2018-01-29T02:19:31.098Z,97238
2018-01-29T02:22:00.142Z,97243
2018-01-29T02:24:29.974Z,97248
2018-01-29T02:26:58.996Z,97169
2018-01-29T02:29:28.058Z,97239
2018-01-29T02:31:57.124Z,97230
2018-01-29T02:34:26.143Z,97229
2018-01-29T02:36:55.201Z,97225
2018-01-29T02:39:24.226Z,97228
2018-01-29T02:41:53.998Z,97222
2018-01-29T02:44:23.052Z,97230
2018-01-29T02:46:52.074Z,97218
2018-01-29T02:49:21.117Z,97224
2018-01-29T02:51:50.898Z,97225
2018-01-29T02:54:20.864Z,97226
2018-01-29T02:56:49.889Z,97229
2018-01-29T02:59:18.942Z,97235
2018-01-29T03:01:47.976Z,97228
2018-01-29T03:04:17.056Z,97227
2018-01-29T03:06:46.083Z,97229
2018-01-29T03:09:15.169Z,97224
2018-01-29T03:11:44.169Z,97231
2018-01-29T03:14:13.258Z,97220
2018-01-29T03:16:42.273Z,97226
2018-01-29T03:19:11.324Z,97227
2018-01-29T03:21:40.342Z,97214
2018-01-29T03:24:09.413Z,97215
2018-01-29T03:26:38.424Z,97221
2018-01-29T03:29:07.448Z,97230
2018-01-29T03:31:37.270Z,97225
2018-01-29T03:34:07.053Z,97214
2018-01-29T03:36:36.101Z,97218
2018-01-29T03:39:05.123Z,97213
2018-01-29T03:41:34.178Z,97214
2018-01-29T03:44:03.206Z,97212
2018-01-29T03:46:32.256Z,97209
2018-01-29T03:49:02.042Z,97207
2018-01-29T03:51:31.103Z,97214
2018-01-29T03:54:00.113Z,97206
2018-01-29T03:56:29.169Z,97210
2018-01-29T03:58:58.186Z,97209
2018-01-29T04:01:27.265Z,97211
2018-01-29T04:03:56.260Z,97205
2018-01-29T04:06:25.278Z,97196
2018-01-29T04:08:54.335Z,97202
2018-01-29T04:11:23.354Z,97198
2018-01-29T04:13:52.405Z,97195
2018-01-29T04:16:21.441Z,97201
2018-01-29T04:18:50.499Z,97190
2018-01-29T04:21:20.281Z,97189
2018-01-29T04:23:49.332Z,97182
2018-01-29T04:26:18.359Z,97181
2018-01-29T04:28:47.408Z,97184
2018-01-29T04:31:16.420Z,97182
2018-01-29T04:33:45.478Z,97183
2018-01-29T04:36:14.499Z,97188
2018-01-29T04:38:43.563Z,97195
2018-01-29T04:41:13.346Z,97196
2018-01-29T04:43:42.365Z,97185
2018-01-29T04:46:12.212Z,97183
2018-01-29T04:48:41.217Z,97186
2018-01-29T04:51:10.256Z,97192
2018-01-29T04:53:40.040Z,97195
2018-01-29T04:56:09.092Z,97199
2018-01-29T04:58:38.108Z,97188
2018-01-29T05:01:07.160Z,97198
2018-01-29T05:03:36.946Z,97200
2018-01-29T05:06:06.073Z,97206
2018-01-29T05:08:38.930Z,97200
2018-01-29T05:11:07.993Z,97187
2018-01-29T05:13:37.006Z,97189
2018-01-29T05:16:06.058Z,97249
2018-01-29T05:18:35.072Z,97193
2018-01-29T05:21:04.142Z,97188
2018-01-29T05:23:33.166Z,97185
2018-01-29T05:26:02.206Z,97185
2018-01-29T05:28:32.033Z,97183
2018-01-29T05:31:01.058Z,97186
2018-01-29T05:33:30.106Z,97191
2018-01-29T05:35:59.884Z,97190
2018-01-29T05:38:29.269Z,97188
2018-01-29T05:40:58.281Z,97193
2018-01-29T05:43:27.335Z,97199
2018-01-29T05:45:56.352Z,97193
2018-01-29T05:48:25.408Z,97196
2018-01-29T05:50:54.421Z,97189
2018-01-29T05:53:23.476Z,97203
2018-01-29T05:55:53.257Z,97199
2018-01-29T05:58:22.327Z,97200
2018-01-29T06:00:51.350Z,97202
2018-01-29T06:03:20.427Z,97206
2018-01-29T06:05:49.475Z,97195
2018-01-29T06:08:18.544Z,97195
2018-01-29T06:10:47.565Z,97187
2018-01-29T06:13:17.348Z,97190
2018-01-29T06:15:46.397Z,97192
2018-01-29T06:18:15.423Z,97194
2018-01-29T06:20:44.479Z,97190
2018-01-29T06:23:13.506Z,97187
2018-01-29T06:25:42.570Z,97190
2018-01-29T06:28:11.594Z,97189
2018-01-29T06:30:40.640Z,97188
2018-01-29T06:33:09.678Z,97185
2018-01-29T06:35:38.735Z,97198
2018-01-29T06:38:08.001Z,97183
2018-01-29T06:40:37.103Z,97185
2018-01-29T06:43:06.124Z,97183
2018-01-29T06:45:35.186Z,97181
2018-01-29T06:48:04.461Z,97177
2018-01-29T06:51:01.778Z,97188
2018-01-29T06:53:30.789Z,97181
2018-01-29T06:55:59.849Z,97177
2018-01-29T06:58:44.654Z,97176
2018-01-29T07:01:29.782Z,97168
2018-01-29T08:25:17.793Z,97122
2018-01-29T08:27:46.830Z,97126
2018-01-29T08:30:18.185Z,97128
2018-01-29T08:32:50.774Z,97130
2018-01-29T08:35:20.612Z,97127
2018-01-29T08:37:49.642Z,97123
2018-01-29T08:40:18.731Z,97123
2018-01-29T08:42:47.782Z,97127
2018-01-29T08:45:16.899Z,97128
2018-01-29T08:47:45.967Z,97127
2018-01-29T08:50:15.772Z,97119
2018-01-29T08:52:45.624Z,97117
2018-01-29T08:55:14.666Z,97119
2018-01-29T08:57:43.758Z,97117
2018-01-29T09:00:12.883Z,97115
2018-01-29T09:02:41.980Z,97119
2018-01-29T09:05:11.021Z,97109
2018-01-29T09:07:40.127Z,97113
2018-01-29T09:10:09.177Z,97110
2018-01-29T09:12:38.255Z,97108
2018-01-29T09:15:07.296Z,97111
2018-01-29T09:17:36.351Z,97108
2018-01-29T09:20:05.411Z,97105
2018-01-29T09:22:34.489Z,97103
2018-01-29T09:25:04.321Z,97108
2018-01-29T09:27:34.186Z,97097
2018-01-29T09:30:03.245Z,97103
2018-01-29T09:32:32.339Z,97119
2018-01-29T09:35:01.428Z,97097
2018-01-29T09:37:31.241Z,97097
2018-01-29T09:40:01.120Z,97092
2018-01-29T09:42:30.175Z,97126
2018-01-29T09:44:59.251Z,97091
2018-01-29T09:47:29.060Z,97101
2018-01-29T09:49:58.916Z,97101
2018-01-29T09:52:49.103Z,97100
2018-01-29T09:55:18.192Z,97097
2018-01-29T09:57:47.250Z,97098
2018-01-29T10:00:17.105Z,97086
2018-01-29T10:02:46.190Z,97083
2018-01-29T10:05:15.231Z,97077
2018-01-29T10:07:44.315Z,97079
2018-01-29T10:10:13.358Z,97077
2018-01-29T10:12:43.268Z,97088
2018-01-29T10:15:12.314Z,97075
2018-01-29T10:17:41.400Z,97084
2018-01-29T10:20:10.454Z,97080
2018-01-29T10:22:39.607Z,97079
2018-01-29T10:28:27.813Z,97079
2018-01-29T10:31:04.864Z,97069
2018-01-29T10:33:33.938Z,97068
2018-01-29T10:36:03.021Z,97063
2018-01-29T10:38:32.091Z,97063
2018-01-29T10:41:01.132Z,97061
2018-01-29T10:43:30.204Z,97047
2018-01-29T10:45:59.248Z,97042
2018-01-29T10:48:28.341Z,97037
2018-01-29T10:50:58.138Z,97033
2018-01-29T10:53:27.211Z,97018
2018-01-29T10:56:11.127Z,97026
2018-01-29T10:58:40.224Z,97031
2018-01-29T11:01:14.894Z,97015
2018-01-29T11:03:44.908Z,97011
2018-01-29T11:06:13.952Z,96996
2018-01-29T11:08:42.997Z,96982
2018-01-29T11:11:12.118Z,96979
2018-01-29T11:13:41.160Z,96979
2018-01-29T11:16:10.248Z,96976
2018-01-29T11:18:39.336Z,96963
2018-01-29T11:21:12.351Z,96951
2018-01-29T11:23:41.389Z,96938
2018-01-29T11:26:21.967Z,96941
2018-01-29T11:28:55.243Z,96942
2018-01-29T11:31:24.324Z,96926
2018-01-29T11:33:54.140Z,96925
2018-01-29T11:36:23.976Z,96913
2018-01-29T11:38:53.006Z,96926
2018-01-29T11:41:22.082Z,96917
2018-01-29T11:43:51.131Z,96906
2018-01-29T11:46:50.483Z,96894
2018-01-29T11:49:19.506Z,96878
2018-01-29T11:51:48.574Z,96882
2018-01-29T11:54:17.678Z,96875
2018-01-29T11:56:46.771Z,96872
2018-01-29T11:59:16.149Z,96866
2018-01-29T12:01:45.319Z,96870
2018-01-29T12:04:14.668Z,96873
2018-01-29T12:06:43.716Z,96871
2018-01-29T12:09:13.588Z,96864
2018-01-29T12:11:42.671Z,96860
2018-01-29T12:14:19.933Z,96852
2018-01-29T12:16:49.005Z,96847
2018-01-29T12:19:19.053Z,96844
2018-01-29T12:21:48.927Z,96836
2018-01-29T12:24:22.451Z,95740
2018-01-29T12:26:51.556Z,96813
2018-01-29T12:29:20.596Z,96830
2018-01-29T12:31:50.698Z,96821
2018-01-29T12:34:19.787Z,96821
2018-01-29T12:36:49.312Z,96811
2018-01-29T12:39:18.797Z,96812
2018-01-29T12:41:48.803Z,96803
2018-01-29T12:44:17.876Z,96791
2018-01-29T12:46:56.765Z,96793
2018-01-29T12:49:38.236Z,96795
2018-01-29T12:52:18.366Z,96789
2018-01-29T12:54:47.559Z,96791
2018-01-29T12:57:16.700Z,96787
2018-01-29T12:59:45.871Z,96790
2018-01-29T13:02:16.142Z,96797
2018-01-29T13:04:51.641Z,96012
2018-01-29T13:07:46.131Z,96796
2018-01-29T13:10:21.303Z,96786
2018-01-29T13:12:51.090Z,96788
2018-01-29T13:15:20.110Z,96787
2018-01-29T13:17:50.285Z,96808
2018-01-29T13:20:19.723Z,96797
2018-01-29T13:22:49.287Z,96798
2018-01-29T13:25:18.578Z,96793
2018-01-29T13:27:48.002Z,96792
2018-01-29T13:30:18.295Z,96798
2018-01-29T13:32:47.981Z,96807
2018-01-29T13:35:18.296Z,96795
2018-01-29T13:38:01.195Z,96802
2018-01-29T13:40:31.430Z,96803
2018-01-29T13:43:00.508Z,96798
2018-01-29T13:45:30.501Z,96792
2018-01-29T13:48:04.686Z,96730
2018-01-29T13:50:34.383Z,96787
2018-01-29T13:53:04.498Z,96790
2018-01-29T13:55:34.051Z,96781
2018-01-29T13:58:09.802Z,96774
2018-01-29T14:00:38.986Z,96769
2018-01-29T14:03:08.640Z,96769
2018-01-29T14:05:37.940Z,96763
2018-01-29T14:08:08.674Z,96761
2018-01-29T14:10:38.210Z,96764
2018-01-29T14:13:07.667Z,96751
2018-01-29T14:15:37.245Z,96751
2018-01-29T14:18:07.413Z,96748
2018-01-29T14:20:37.461Z,96745
2018-01-29T14:23:07.406Z,96731
2018-01-29T14:25:36.764Z,96729
2018-01-29T14:28:06.001Z,96724
2018-01-29T14:30:36.496Z,96713
2018-01-29T14:33:05.831Z,96713
2018-01-29T14:35:35.122Z,96726
2018-01-29T14:38:09.967Z,96710
2018-01-29T14:40:39.538Z,96707
2018-01-29T14:43:09.161Z,96729
2018-01-29T14:45:38.808Z,96705
2018-01-29T14:48:08.196Z,96708
2018-01-29T14:50:37.511Z,96707
2018-01-29T14:53:06.549Z,96710
2018-01-29T14:55:35.603Z,96705
2018-01-29T14:58:04.775Z,96703
2018-01-29T15:00:34.085Z,96701
2018-01-29T15:03:04.288Z,96700
2018-01-29T15:05:33.334Z,96700
2018-01-29T15:08:06.087Z,96694
2018-01-29T15:10:35.114Z,96700
2018-01-29T15:13:04.278Z,96698
2018-01-29T15:15:33.338Z,96701
2018-01-29T15:18:02.419Z,96699
2018-01-29T15:20:35.535Z,96696
2018-01-29T15:23:04.700Z,96691
2018-01-29T15:25:38.442Z,96685
2018-01-29T15:28:08.360Z,96695
2018-01-29T15:30:39.457Z,96695
2018-01-29T15:33:08.527Z,96687
2018-01-29T15:35:37.581Z,96695
2018-01-29T15:38:06.596Z,96694
2018-01-29T15:40:35.700Z,96688
2018-01-29T15:43:05.567Z,96692
2018-01-29T15:45:40.806Z,96683
2018-01-29T15:48:10.009Z,96676
2018-01-29T15:50:39.076Z,96678
2018-01-29T15:53:10.146Z,96676
2018-01-29T15:55:39.966Z,96677
2018-01-29T15:58:09.214Z,96666
2018-01-29T16:00:38.286Z,96674
2018-01-29T16:03:07.377Z,96676
2018-01-29T16:05:41.193Z,96680
2018-01-29T16:08:13.917Z,96684
2018-01-29T16:10:43.762Z,96678
2018-01-29T16:13:12.778Z,96673
2018-01-29T16:15:43.797Z,96671
2018-01-29T16:18:12.857Z,96665
2018-01-29T16:20:42.650Z,96658
2018-01-29T16:23:11.729Z,96676
2018-01-29T16:25:40.770Z,96664
2018-01-29T16:28:10.605Z,96672
2018-01-29T16:30:39.625Z,96679
2018-01-29T16:33:08.690Z,96675
2018-01-29T16:35:37.733Z,96673
2018-01-29T16:38:06.810Z,96670
2018-01-29T16:40:35.856Z,96672
2018-01-29T16:43:05.697Z,96679
2018-01-29T16:46:01.844Z,96671
2018-01-29T16:48:31.971Z,96675
2018-01-29T16:51:01.365Z,96676
2018-01-29T16:53:31.396Z,96687
2018-01-29T16:56:14.219Z,96679
2018-01-29T16:58:43.680Z,96687
2018-01-29T17:01:14.074Z,96690
2018-01-29T17:03:43.293Z,96683
2018-01-29T17:06:13.514Z,96683
2018-01-29T17:08:42.979Z,96721
2018-01-29T17:11:12.345Z,96694
2018-01-29T17:13:41.666Z,96698
2018-01-29T17:16:11.310Z,96697
2018-01-29T17:18:41.268Z,96683
2018-01-29T17:21:10.913Z,96689
2018-01-29T17:23:41.185Z,96682
2018-01-29T17:26:11.408Z,96689
2018-01-29T17:28:41.348Z,96684
2018-01-29T17:31:10.696Z,96683
2018-01-29T17:33:39.967Z,96673
2018-01-29T17:36:09.388Z,96685
2018-01-29T17:38:39.001Z,96674
2018-01-29T17:41:08.151Z,96675
2018-01-29T17:43:57.478Z,96673
2018-01-29T17:46:27.144Z,96660
2018-01-29T17:48:56.620Z,96664
2018-01-29T17:51:25.723Z,96669
2018-01-29T17:53:54.787Z,96666
2018-01-29T17:56:24.203Z,96669
2018-01-29T17:58:58.157Z,96657
2018-01-29T18:01:28.413Z,96668
2018-01-29T18:03:57.906Z,96669
2018-01-29T18:06:27.025Z,96691
2018-01-29T18:08:58.306Z,96674
2018-01-29T18:11:27.984Z,96675
2018-01-29T18:13:59.568Z,96692
2018-01-29T18:16:29.438Z,96697
2018-01-29T18:18:59.340Z,96692
2018-01-29T18:21:30.327Z,96693
2018-01-29T18:24:00.236Z,96691
2018-01-29T18:26:29.641Z,96697
2018-01-29T18:28:59.946Z,96696
2018-01-29T18:31:29.680Z,96700
2018-01-29T18:33:59.109Z,96700
2018-01-29T18:36:28.710Z,96700
2018-01-29T18:38:58.035Z,96702
2018-01-29T18:41:27.229Z,96705
2018-01-29T18:43:56.632Z,96704
2018-01-29T18:46:26.821Z,96693
2018-01-29T18:48:56.171Z,96701
2018-01-29T18:51:25.368Z,96698
2018-01-29T18:53:54.622Z,96697
2018-01-29T18:56:25.862Z,96698
2018-01-29T18:58:55.096Z,96722
2018-01-29T19:01:24.679Z,96705
2018-01-29T19:03:54.738Z,96706
2018-01-29T19:06:25.398Z,96705
2018-01-29T19:08:54.674Z,96703
2018-01-29T19:11:23.790Z,96703
2018-01-29T19:13:53.583Z,96700
2018-01-29T19:16:22.910Z,96773
2018-01-29T19:18:52.321Z,96706
2018-01-29T19:21:21.825Z,96709
2018-01-29T19:23:51.288Z,96710
2018-01-29T19:26:20.464Z,96706
2018-01-29T19:28:49.617Z,96704
2018-01-29T19:31:18.678Z,96713
2018-01-29T19:33:47.711Z,96715
2018-01-29T19:36:17.559Z,96723
2018-01-29T19:38:46.586Z,96719
2018-01-29T19:41:15.656Z,96729
2018-01-29T19:43:44.683Z,96714
2018-01-29T19:46:13.738Z,96723
2018-01-29T19:48:46.608Z,96716
2018-01-29T19:51:15.862Z,96713
2018-01-29T19:53:45.598Z,96717
2018-01-29T19:56:15.440Z,96711
2018-01-29T19:58:45.339Z,96703
2018-01-29T20:01:15.771Z,96695
2018-01-29T20:03:47.070Z,96696
2018-01-29T20:06:16.541Z,96705
2018-01-29T20:08:45.963Z,96704
2018-01-29T20:11:15.294Z,96706
2018-01-29T20:13:46.606Z,96703
2018-01-29T20:16:16.838Z,96722
2018-01-29T20:18:47.496Z,96713
2018-01-29T20:21:18.119Z,96724
2018-01-29T20:23:49.977Z,96734
2018-01-29T20:26:20.328Z,96733
2018-01-29T20:28:50.665Z,96736
2018-01-29T20:31:20.241Z,96731
2018-01-29T20:33:49.654Z,96728
2018-01-29T20:36:19.014Z,96747
2018-01-29T20:38:48.400Z,96735
2018-01-29T20:41:18.208Z,96733
2018-01-29T20:43:47.839Z,96734
2018-01-29T20:46:20.737Z,96740
2018-01-29T20:48:51.253Z,96728
2018-01-29T20:51:21.070Z,96719
2018-01-29T20:53:51.270Z,96734
2018-01-29T20:56:20.931Z,96742
2018-01-29T20:58:50.137Z,96735
2018-01-29T21:01:19.368Z,96733
2018-01-29T21:03:48.797Z,96741
2018-01-29T21:06:18.107Z,96740
2018-01-29T21:11:28.752Z,96760
2018-01-29T21:13:59.012Z,96769
2018-01-29T21:16:29.066Z,96776
2018-01-29T21:18:58.786Z,96785
2018-01-29T21:21:30.410Z,96778
2018-01-29T21:24:01.449Z,96757
2018-01-29T21:26:31.777Z,96774
2018-01-29T21:29:01.232Z,96774
2018-01-29T21:31:30.713Z,96770
2018-01-29T21:33:59.941Z,96760
2018-01-29T21:36:29.079Z,96763
2018-01-29T21:38:58.264Z,96765
2018-01-29T21:41:41.487Z,96758
2018-01-29T21:44:10.812Z,96749
2018-01-29T21:46:40.128Z,96753
2018-01-29T21:49:09.435Z,96755
2018-01-29T21:51:39.004Z,96763
2018-01-29T21:54:08.837Z,96770
2018-01-29T21:56:39.005Z,96772
2018-01-29T21:59:08.199Z,96794
2018-01-29T22:01:38.341Z,96773
2018-01-29T22:04:07.492Z,96771
2018-01-29T22:06:36.872Z,96758
2018-01-29T22:09:06.477Z,96774
2018-01-29T22:11:35.800Z,96786
2018-01-29T22:14:06.359Z,96775
2018-01-29T22:16:37.040Z,96759
2018-01-29T22:19:06.404Z,96770
2018-01-29T22:21:36.962Z,96776
2018-01-29T22:24:07.334Z,96773
2018-01-29T22:26:37.191Z,96786
2018-01-29T22:29:06.251Z,96777
2018-01-29T22:31:35.675Z,96774
2018-01-29T22:34:05.879Z,96773
2018-01-29T22:36:35.648Z,96765
2018-01-29T22:39:04.865Z,96105
2018-01-29T22:41:35.298Z,96769
2018-01-29T22:44:04.743Z,96767
2018-01-29T22:46:34.249Z,96768
2018-01-29T22:49:04.122Z,96771
2018-01-29T22:51:33.707Z,96768
2018-01-29T22:54:02.822Z,96774
2018-01-29T22:56:32.605Z,96781
2018-01-29T22:59:01.620Z,96774
2018-01-29T23:01:31.447Z,96777
2018-01-29T23:04:00.466Z,96783
2018-01-29T23:06:29.516Z,96787
2018-01-29T23:08:58.689Z,96781
2018-01-29T23:11:27.753Z,96785
2018-01-29T23:13:56.766Z,96781
2018-01-29T23:16:25.829Z,96792
2018-01-29T23:18:54.854Z,96794
2018-01-29T23:21:23.908Z,96784
2018-01-29T23:23:52.945Z,96793
2018-01-29T23:26:21.982Z,96797
2018-01-29T23:28:51.802Z,96799
2018-01-29T23:31:20.816Z,96795
2018-01-29T23:33:49.869Z,96808
2018-01-29T23:36:19.644Z,96808
2018-01-29T23:38:48.712Z,96822
2018-01-29T23:41:17.726Z,96811
2018-01-29T23:43:46.770Z,96808
2018-01-29T23:46:15.807Z,96796
2018-01-29T23:48:44.844Z,96801
2018-01-29T23:51:13.863Z,96796
2018-01-29T23:53:42.910Z,96800
2018-01-29T23:56:11.938Z,96840
2018-01-29T23:58:41.775Z,96805
